createdAt,value
2023-03-02T00:02:13.253Z,56.57
2023-03-02T00:04:49.149Z,55.80
2023-03-02T00:07:19.942Z,55.73
2023-03-02T00:09:46.623Z,55.17
2023-03-02T00:12:13.482Z,53.50
2023-03-02T00:14:40.165Z,53.83
2023-03-02T00:17:07.977Z,55.00
2023-03-02T00:19:34.577Z,54.33
2023-03-02T00:22:01.353Z,54.03
2023-03-02T00:24:27.934Z,57.53
2023-03-02T00:26:54.491Z,58.03
2023-03-02T00:29:20.968Z,54.73
2023-03-02T00:31:47.532Z,56.50
2023-03-02T00:34:14.040Z,59.10
2023-03-02T00:36:40.835Z,56.17
2023-03-02T00:39:07.667Z,55.87
2023-03-02T00:41:34.187Z,54.57
2023-03-02T00:44:00.698Z,59.10
2023-03-02T00:46:28.538Z,60.40
2023-03-02T00:48:55.694Z,57.97
2023-03-02T00:51:22.244Z,57.70
2023-03-02T00:53:48.736Z,57.63
2023-03-02T00:56:15.175Z,56.67
2023-03-02T00:58:41.712Z,57.43
2023-03-02T01:01:10.534Z,59.33
2023-03-02T01:03:37.105Z,58.37
2023-03-02T01:06:04.739Z,57.27
2023-03-02T01:08:31.646Z,60.20
2023-03-02T01:11:01.250Z,58.47
2023-03-02T01:13:28.175Z,63.67
2023-03-02T01:16:02.418Z,57.13
2023-03-02T01:18:28.952Z,62.17
2023-03-02T01:21:03.203Z,60.97
2023-03-02T01:23:29.762Z,59.33
2023-03-02T01:25:57.041Z,59.03
2023-03-02T01:28:23.929Z,61.93
2023-03-02T01:30:50.562Z,60.43
2023-03-02T01:33:17.045Z,61.13
2023-03-02T01:35:47.066Z,60.67
2023-03-02T01:38:14.043Z,64.73
2023-03-02T01:40:40.546Z,59.03
2023-03-02T01:43:12.186Z,60.63
2023-03-02T01:46:03.334Z,59.23
2023-03-02T01:48:35.178Z,58.43
2023-03-02T01:51:02.569Z,60.23
2023-03-02T01:53:31.334Z,53.97
2023-03-02T01:55:58.334Z,49.60
2023-03-02T01:58:25.415Z,50.47
2023-03-02T02:00:52.843Z,48.47
2023-03-02T02:03:22.231Z,46.17
2023-03-02T02:05:58.775Z,45.47
2023-03-02T02:08:25.459Z,38.70
2023-03-02T02:10:53.069Z,36.53
2023-03-02T02:13:19.737Z,32.50
2023-03-02T02:15:46.284Z,33.07
2023-03-02T02:18:12.797Z,32.57
2023-03-02T02:20:47.466Z,33.83
2023-03-02T02:23:29.402Z,34.27
2023-03-02T02:26:02.418Z,28.63
2023-03-02T02:28:36.106Z,30.07
2023-03-02T02:31:14.795Z,28.10
2023-03-02T02:33:45.664Z,28.83
2023-03-02T02:36:19.630Z,31.13
2023-03-02T02:38:48.558Z,29.33
2023-03-02T02:41:21.213Z,29.93
2023-03-02T02:43:47.946Z,29.10
2023-03-02T02:46:14.526Z,30.57
2023-03-02T02:48:41.490Z,32.03
2023-03-02T02:51:09.729Z,32.23
2023-03-02T02:53:50.128Z,31.03
2023-03-02T02:56:17.602Z,31.80
2023-03-02T02:58:47.570Z,29.87
2023-03-02T03:01:15.864Z,32.00
2023-03-02T03:03:47.296Z,31.67
2023-03-02T03:06:18.053Z,32.20
2023-03-02T03:08:44.470Z,30.97
2023-03-02T03:11:13.442Z,32.27
2023-03-02T03:13:41.292Z,30.30
2023-03-02T03:16:10.463Z,30.43
2023-03-02T03:18:37.074Z,31.03
2023-03-02T03:21:03.697Z,32.10
2023-03-02T03:23:30.497Z,30.63
2023-03-02T03:25:57.473Z,30.07
2023-03-02T03:28:24.008Z,30.73
2023-03-02T03:30:50.520Z,30.77
2023-03-02T03:33:17.200Z,30.13
2023-03-02T03:35:43.865Z,28.67
2023-03-02T03:38:10.346Z,28.83
2023-03-02T03:40:37.011Z,28.27
2023-03-02T03:43:04.251Z,31.33
2023-03-02T03:45:31.008Z,29.23
2023-03-02T03:47:57.712Z,29.20
2023-03-02T03:50:24.663Z,30.50
2023-03-02T03:52:51.319Z,27.80
2023-03-02T03:55:18.053Z,28.80
2023-03-02T03:57:44.656Z,29.63
2023-03-02T04:00:14.996Z,28.07
2023-03-02T04:02:41.861Z,28.20
2023-03-02T04:05:09.407Z,26.93
2023-03-02T04:07:37.415Z,29.30
2023-03-02T04:10:05.107Z,26.70
2023-03-02T04:12:35.628Z,28.70
2023-03-02T04:15:02.904Z,27.63
2023-03-02T04:17:29.495Z,26.70
2023-03-02T04:19:56.208Z,26.13
2023-03-02T04:22:22.826Z,26.47
2023-03-02T04:24:49.919Z,27.50
2023-03-02T04:27:16.876Z,26.57
2023-03-02T04:29:44.865Z,28.30
2023-03-02T04:32:14.588Z,27.60
2023-03-02T04:34:41.192Z,27.63
2023-03-02T04:37:07.793Z,27.80
2023-03-02T04:39:34.245Z,26.80
2023-03-02T04:42:00.817Z,27.07
2023-03-02T04:44:27.309Z,27.47
2023-03-02T04:46:53.936Z,28.53
2023-03-02T04:49:20.629Z,26.40
2023-03-02T04:51:48.701Z,25.63
2023-03-02T04:54:21.169Z,26.30
2023-03-02T04:56:48.655Z,25.10
2023-03-02T04:59:20.159Z,25.10
2023-03-02T05:01:47.192Z,24.10
2023-03-02T05:04:13.969Z,25.53
2023-03-02T05:06:40.715Z,24.83
2023-03-02T05:09:07.180Z,25.23
2023-03-02T05:11:34.146Z,23.83
2023-03-02T05:14:03.508Z,24.33
2023-03-02T05:16:32.762Z,25.90
2023-03-02T05:19:01.605Z,23.50
2023-03-02T05:21:28.232Z,25.07
2023-03-02T05:23:55.430Z,24.33
2023-03-02T05:26:22.265Z,24.87
2023-03-02T05:28:48.973Z,25.60
2023-03-02T05:31:23.318Z,24.57
2023-03-02T05:33:49.969Z,25.40
2023-03-02T05:36:18.998Z,25.40
2023-03-02T05:38:46.592Z,24.43
2023-03-02T05:41:13.307Z,24.30
2023-03-02T05:43:39.856Z,24.23
2023-03-02T05:46:06.496Z,24.00
2023-03-02T05:48:33.393Z,23.93
2023-03-02T05:51:00.074Z,24.30
2023-03-02T05:53:26.743Z,24.50
2023-03-02T05:55:53.475Z,26.60
2023-03-02T05:58:20.653Z,24.77
2023-03-02T06:00:48.144Z,27.30
2023-03-02T06:03:15.595Z,26.83
2023-03-02T06:05:42.603Z,26.93
2023-03-02T06:08:09.441Z,26.70
2023-03-02T06:10:36.247Z,25.33
2023-03-02T06:13:02.856Z,27.13
2023-03-02T06:15:29.827Z,28.53
2023-03-02T06:17:59.101Z,27.93
2023-03-02T06:20:26.077Z,27.47
2023-03-02T06:22:53.186Z,26.60
2023-03-02T06:25:23.650Z,27.67
2023-03-02T06:27:51.703Z,29.30
2023-03-02T06:30:21.503Z,28.70
2023-03-02T06:32:48.041Z,27.60
2023-03-02T06:35:14.809Z,28.43
2023-03-02T06:37:44.062Z,30.37
2023-03-02T06:40:12.012Z,29.40
2023-03-02T06:42:39.457Z,30.40
2023-03-02T06:45:07.200Z,32.50
2023-03-02T06:47:34.072Z,31.87
2023-03-02T06:50:00.674Z,33.10
2023-03-02T06:52:27.635Z,32.53
2023-03-02T06:54:55.005Z,32.53
2023-03-02T06:57:21.561Z,34.10
2023-03-02T06:59:48.232Z,34.20
2023-03-02T07:02:14.703Z,34.87
2023-03-02T07:04:41.243Z,33.53
2023-03-02T07:07:07.946Z,33.10
2023-03-02T07:09:34.721Z,34.50
2023-03-02T07:12:01.535Z,36.33
2023-03-02T07:14:28.262Z,34.47
2023-03-02T07:16:57.423Z,35.00
2023-03-02T07:19:24.043Z,35.50
2023-03-02T07:21:50.671Z,36.77
2023-03-02T07:24:17.228Z,34.67
2023-03-02T07:26:43.992Z,35.63
2023-03-02T07:29:10.582Z,34.13
2023-03-02T07:31:37.136Z,33.90
2023-03-02T07:34:03.773Z,35.93
2023-03-02T07:36:30.373Z,32.77
2023-03-02T07:38:57.575Z,34.63
2023-03-02T07:41:24.078Z,34.93
2023-03-02T07:43:50.697Z,32.73
2023-03-02T07:46:17.229Z,33.57
2023-03-02T07:48:43.757Z,33.23
2023-03-02T07:51:10.451Z,31.60
2023-03-02T07:53:36.999Z,31.00
2023-03-02T07:56:11.001Z,29.33
2023-03-02T07:58:37.892Z,32.00
2023-03-02T08:01:04.692Z,33.10
2023-03-02T08:03:31.205Z,32.23
2023-03-02T08:05:57.988Z,32.27
2023-03-02T08:08:24.636Z,30.97
2023-03-02T08:10:51.166Z,32.80
2023-03-02T08:13:17.815Z,33.93
2023-03-02T08:15:44.430Z,30.10
2023-03-02T08:18:10.922Z,26.20
2023-03-02T08:20:37.710Z,27.47
2023-03-02T08:23:04.200Z,27.13
2023-03-02T08:25:30.670Z,28.23
2023-03-02T08:27:57.588Z,29.60
2023-03-02T08:30:24.100Z,26.97
2023-03-02T08:32:50.809Z,26.03
2023-03-02T08:35:17.516Z,28.20
2023-03-02T08:37:44.007Z,27.37
2023-03-02T08:40:11.097Z,26.33
2023-03-02T08:42:37.942Z,26.67
2023-03-02T08:45:04.854Z,41.10
2023-03-02T08:47:32.424Z,34.33
2023-03-02T08:49:59.004Z,31.13
2023-03-02T08:52:25.580Z,28.00
2023-03-02T08:54:52.134Z,27.87
2023-03-02T08:57:19.750Z,27.67
2023-03-02T08:59:47.762Z,27.17
2023-03-02T09:02:14.362Z,26.73
2023-03-02T09:04:41.184Z,24.63
2023-03-02T09:07:07.809Z,21.67
2023-03-02T09:09:34.420Z,19.87
2023-03-02T09:12:00.935Z,19.00
2023-03-02T09:14:27.831Z,14.70
2023-03-02T09:16:54.524Z,14.63
2023-03-02T09:19:21.269Z,18.13
2023-03-02T09:21:48.061Z,20.23
2023-03-02T09:24:14.587Z,19.37
2023-03-02T09:26:41.204Z,19.93
2023-03-02T09:29:08.040Z,17.37
2023-03-02T09:31:36.085Z,16.23
2023-03-02T09:34:04.332Z,15.50
2023-03-02T09:36:32.774Z,15.40
2023-03-02T09:38:59.529Z,14.47
2023-03-02T09:41:59.771Z,15.50
2023-03-02T09:44:35.399Z,14.60
2023-03-02T09:47:05.202Z,15.27
2023-03-02T09:49:50.429Z,13.73
2023-03-02T09:52:19.835Z,13.13
2023-03-02T09:54:46.300Z,14.20
2023-03-02T09:57:24.784Z,12.63
2023-03-02T10:00:06.635Z,7.70
2023-03-02T10:03:05.137Z,8.27
2023-03-02T10:05:43.147Z,8.60
2023-03-02T10:08:22.009Z,8.67
2023-03-02T10:10:51.187Z,8.27
2023-03-02T10:13:26.509Z,8.10
2023-03-02T10:15:58.821Z,7.00
2023-03-02T10:18:35.823Z,7.20
2023-03-02T10:21:27.253Z,8.27
2023-03-02T10:24:42.462Z,7.80
2023-03-02T10:27:19.093Z,7.63
2023-03-02T10:29:51.558Z,6.77
2023-03-02T10:32:26.553Z,7.33
2023-03-02T10:34:53.835Z,7.20
2023-03-02T10:37:29.721Z,6.83
2023-03-02T10:39:59.173Z,7.43
2023-03-02T10:42:37.561Z,6.63
2023-03-02T10:45:27.420Z,6.17
2023-03-02T10:48:09.249Z,6.33
2023-03-02T10:50:36.819Z,5.70
2023-03-02T10:53:06.876Z,6.47
2023-03-02T10:55:34.429Z,6.60
2023-03-02T10:58:25.983Z,6.27
2023-03-02T11:00:58.115Z,7.23
2023-03-02T11:03:24.784Z,7.17
2023-03-02T11:05:51.445Z,9.33
2023-03-02T11:08:23.424Z,7.53
2023-03-02T11:11:03.697Z,8.50
2023-03-02T11:13:35.472Z,8.17
2023-03-02T11:16:03.123Z,7.53
2023-03-02T11:18:29.559Z,7.60
2023-03-02T11:21:05.585Z,8.87
2023-03-02T11:24:02.677Z,7.70
2023-03-02T11:26:46.133Z,7.93
2023-03-02T11:29:20.979Z,8.80
2023-03-02T11:31:56.171Z,8.07
2023-03-02T11:34:54.435Z,8.07
2023-03-02T11:37:36.833Z,8.33
2023-03-02T11:40:09.094Z,8.43
2023-03-02T11:42:39.036Z,8.00
2023-03-02T11:45:16.707Z,8.60
2023-03-02T11:47:57.415Z,9.67
2023-03-02T11:50:28.323Z,8.47
2023-03-02T11:52:58.900Z,9.07
2023-03-02T11:55:30.269Z,8.23
2023-03-02T12:00:37.409Z,8.87
2023-03-02T12:03:07.223Z,9.30
2023-03-02T12:05:37.115Z,8.70
2023-03-02T12:08:07.479Z,10.73
2023-03-02T12:10:40.413Z,9.10
2023-03-02T12:13:15.745Z,9.20
2023-03-02T12:15:45.393Z,9.00
2023-03-02T12:18:21.178Z,9.37
2023-03-02T12:21:07.660Z,9.50
2023-03-02T12:23:36.698Z,9.17
2023-03-02T12:26:09.438Z,9.50
2023-03-02T12:28:38.906Z,9.50
2023-03-02T12:31:12.455Z,9.40
2023-03-02T12:33:49.179Z,9.13
2023-03-02T12:36:27.527Z,9.00
2023-03-02T12:39:06.277Z,8.97
2023-03-02T12:41:51.166Z,9.63
2023-03-02T12:44:33.770Z,9.33
2023-03-02T12:47:02.942Z,9.10
2023-03-02T12:49:50.597Z,9.67
2023-03-02T12:52:34.611Z,10.17
2023-03-02T12:55:04.522Z,10.03
2023-03-02T12:57:31.853Z,10.20
2023-03-02T13:00:01.942Z,9.50
2023-03-02T13:02:36.330Z,10.70
2023-03-02T13:05:07.167Z,10.53
2023-03-02T13:07:41.373Z,10.20
2023-03-02T13:10:38.189Z,9.67
2023-03-02T13:13:17.008Z,9.60
2023-03-02T13:15:52.658Z,9.83
2023-03-02T13:18:23.540Z,9.90
2023-03-02T13:20:50.600Z,10.23
2023-03-02T13:23:18.249Z,10.07
2023-03-02T13:25:52.514Z,9.93
2023-03-02T13:28:35.086Z,9.87
2023-03-02T13:31:04.412Z,9.17
2023-03-02T13:33:32.202Z,9.90
2023-03-02T13:35:59.138Z,9.73
2023-03-02T13:38:28.228Z,9.57
2023-03-02T13:40:56.044Z,10.07
2023-03-02T13:43:34.581Z,9.93
2023-03-02T13:46:03.750Z,10.00
2023-03-02T13:48:31.012Z,10.83
2023-03-02T13:51:15.576Z,10.03
2023-03-02T13:53:50.668Z,11.20
2023-03-02T13:56:18.350Z,10.37
2023-03-02T13:58:45.321Z,11.77
2023-03-02T14:01:13.066Z,11.07
2023-03-02T14:03:39.740Z,10.23
2023-03-02T14:06:07.397Z,10.77
2023-03-02T14:08:33.986Z,11.27
2023-03-02T14:11:01.490Z,12.10
2023-03-02T14:13:37.673Z,11.67
2023-03-02T14:16:04.610Z,10.97
2023-03-02T14:18:40.499Z,12.43
2023-03-02T14:21:12.358Z,11.37
2023-03-02T14:23:41.107Z,11.50
2023-03-02T14:26:26.383Z,12.20
2023-03-02T14:29:04.554Z,12.33
2023-03-02T14:31:32.227Z,11.33
2023-03-02T14:33:58.925Z,11.87
2023-03-02T14:36:34.890Z,11.63
2023-03-02T14:39:05.044Z,12.27
2023-03-02T14:41:34.440Z,11.10
2023-03-02T14:44:05.102Z,10.77
2023-03-02T14:46:31.685Z,11.20
2023-03-02T14:48:58.166Z,11.60
2023-03-02T14:51:27.175Z,10.43
2023-03-02T14:53:56.055Z,11.27
2023-03-02T14:56:56.281Z,12.57
2023-03-02T14:59:22.810Z,12.23
2023-03-02T15:01:49.527Z,12.43
2023-03-02T15:04:16.284Z,11.13
2023-03-02T15:06:43.162Z,10.73
2023-03-02T15:09:10.996Z,12.30
2023-03-02T15:11:37.433Z,10.37
2023-03-02T15:14:03.944Z,11.33
2023-03-02T15:16:30.814Z,11.47
2023-03-02T15:18:58.901Z,12.20
2023-03-02T15:21:25.601Z,11.37
2023-03-02T15:23:52.348Z,12.30
2023-03-02T15:26:18.969Z,13.13
2023-03-02T15:28:45.694Z,11.43
2023-03-02T15:31:16.616Z,11.97
2023-03-02T15:33:45.144Z,11.60
2023-03-02T15:36:12.588Z,12.00
2023-03-02T15:38:39.634Z,11.50
2023-03-02T15:41:08.662Z,10.90
2023-03-02T15:43:35.294Z,10.23
2023-03-02T15:46:02.325Z,12.10
2023-03-02T17:59:16.845Z,35.67
2023-03-02T18:01:44.040Z,38.40
2023-03-02T18:04:10.587Z,41.20
2023-03-02T18:06:37.278Z,43.13
2023-03-02T18:09:03.933Z,42.87
2023-03-02T18:11:30.447Z,44.10
2023-03-02T18:13:58.032Z,42.40
2023-03-02T18:16:26.251Z,43.97
2023-03-02T18:18:54.060Z,43.30
2023-03-02T18:21:21.202Z,42.63
2023-03-02T18:23:47.671Z,41.10
2023-03-02T18:26:18.238Z,41.93
2023-03-02T18:28:44.983Z,41.53
2023-03-02T18:31:15.191Z,54.17
2023-03-02T18:33:42.137Z,58.30
2023-03-02T18:36:09.459Z,53.20
2023-03-02T18:38:36.444Z,50.27
2023-03-02T18:41:04.831Z,49.87
2023-03-02T18:43:34.895Z,51.60
2023-03-02T18:46:04.068Z,51.37
2023-03-02T18:48:31.391Z,54.27
2023-03-02T18:50:58.540Z,51.47
2023-03-02T18:53:25.745Z,46.87
2023-03-02T18:55:55.519Z,46.90
2023-03-02T18:58:23.411Z,46.93
2023-03-02T19:00:49.911Z,50.83
2023-03-02T19:03:17.480Z,49.07
2023-03-02T19:05:44.764Z,45.60
2023-03-02T19:08:11.896Z,45.97
2023-03-02T19:10:39.525Z,45.27
2023-03-02T19:13:06.142Z,44.73
2023-03-02T19:15:34.809Z,45.37
2023-03-02T19:18:01.557Z,42.40
2023-03-02T19:20:28.377Z,41.13
2023-03-02T19:22:55.407Z,41.27
2023-03-02T19:25:22.416Z,40.47
2023-03-02T19:27:49.009Z,42.43
2023-03-02T19:30:23.459Z,44.63
2023-03-02T19:32:53.826Z,41.67
2023-03-02T19:35:22.520Z,42.90
2023-03-02T19:37:49.059Z,47.97
2023-03-02T19:40:17.981Z,48.17
2023-03-02T19:42:45.852Z,54.00
2023-03-02T19:45:17.898Z,58.43
2023-03-02T19:47:45.520Z,56.73
2023-03-02T19:50:13.733Z,57.03
2023-03-02T19:52:40.662Z,55.93
2023-03-02T19:55:10.668Z,58.33
2023-03-02T19:57:38.123Z,57.17
2023-03-02T20:00:07.662Z,60.13
2023-03-02T20:02:36.183Z,62.97
2023-03-02T20:05:03.876Z,60.37
2023-03-02T20:07:30.337Z,57.93
2023-03-02T20:09:56.950Z,57.40
2023-03-02T20:12:23.439Z,55.97
2023-03-02T20:14:51.168Z,58.07
2023-03-02T20:17:19.778Z,57.83
2023-03-02T20:19:47.524Z,57.47
2023-03-02T20:22:14.950Z,59.43
2023-03-02T20:24:43.117Z,55.67
2023-03-02T20:27:11.517Z,59.57
2023-03-02T20:29:40.208Z,56.50
2023-03-02T20:32:09.105Z,55.93
2023-03-02T20:34:41.193Z,54.43
2023-03-02T20:37:08.062Z,55.70
2023-03-02T20:39:41.601Z,54.57
2023-03-02T20:42:09.267Z,55.70
2023-03-02T20:44:36.352Z,59.03
2023-03-02T20:47:10.852Z,56.97
2023-03-02T20:49:37.673Z,57.03
2023-03-02T20:52:05.481Z,58.43
2023-03-02T20:54:36.384Z,58.33
2023-03-02T20:57:05.450Z,56.70
2023-03-02T20:59:32.517Z,56.57
2023-03-02T21:01:59.423Z,57.67
2023-03-02T21:04:26.303Z,59.50
2023-03-02T21:06:53.123Z,58.20
2023-03-02T21:09:20.262Z,57.53
2023-03-02T21:11:47.340Z,56.83
2023-03-02T21:14:15.097Z,56.07
2023-03-02T21:16:44.062Z,58.47
2023-03-02T21:19:14.016Z,58.30
2023-03-02T21:21:42.179Z,58.13
2023-03-02T21:24:10.704Z,58.27
2023-03-02T21:26:37.347Z,59.00
2023-03-02T21:29:05.336Z,60.70
2023-03-02T21:31:32.028Z,61.27
2023-03-02T21:34:00.065Z,59.23
2023-03-02T21:36:27.278Z,59.87
2023-03-02T21:38:54.027Z,61.87
2023-03-02T21:41:20.702Z,58.97
2023-03-02T21:43:48.374Z,58.17
2023-03-02T21:46:19.353Z,56.40
2023-03-02T21:48:46.772Z,55.57
2023-03-02T21:51:15.139Z,58.27
2023-03-02T21:53:41.881Z,60.07
2023-03-02T21:56:09.605Z,60.03
2023-03-02T21:58:36.208Z,60.37
2023-03-02T22:01:02.899Z,58.70
2023-03-02T22:03:29.351Z,57.73
2023-03-02T22:05:56.070Z,60.13
2023-03-02T22:08:22.759Z,60.50
2023-03-02T22:10:50.517Z,70.73
2023-03-02T22:13:26.400Z,61.20
2023-03-02T22:16:05.880Z,62.23
2023-03-02T22:18:32.413Z,56.83
2023-03-02T22:20:58.930Z,60.50
2023-03-02T22:23:26.962Z,57.90
2023-03-02T22:25:56.319Z,59.17
2023-03-02T22:28:25.384Z,59.57
2023-03-02T22:30:52.604Z,58.83
2023-03-02T22:33:24.906Z,59.90
2023-03-02T22:35:53.209Z,58.27
2023-03-02T22:38:25.184Z,56.67
2023-03-02T22:40:53.043Z,57.37
2023-03-02T22:43:26.482Z,57.47
2023-03-02T22:45:54.156Z,59.07
2023-03-02T22:48:22.421Z,58.63
2023-03-02T22:50:50.066Z,60.83
2023-03-02T22:53:49.869Z,58.97
2023-03-02T22:56:37.546Z,55.13
2023-03-02T22:59:07.542Z,57.80
2023-03-02T23:01:42.529Z,58.60
2023-03-02T23:04:16.213Z,60.73
2023-03-02T23:06:45.250Z,59.80
2023-03-02T23:09:14.715Z,60.57
2023-03-02T23:11:42.024Z,60.37
2023-03-02T23:14:23.592Z,60.17
2023-03-02T23:17:31.956Z,60.00
2023-03-02T23:19:58.836Z,59.57
2023-03-02T23:22:28.495Z,60.27
2023-03-02T23:24:55.958Z,59.80
2023-03-02T23:27:24.280Z,60.43
2023-03-02T23:29:51.899Z,59.73
2023-03-02T23:32:19.525Z,57.43
2023-03-02T23:34:46.296Z,58.27
2023-03-02T23:37:12.928Z,61.37
2023-03-02T23:39:39.564Z,60.93
2023-03-02T23:42:06.186Z,63.27
2023-03-02T23:44:32.646Z,58.57
2023-03-02T23:46:59.567Z,58.97
2023-03-02T23:49:26.133Z,59.47
2023-03-02T23:51:52.767Z,56.43
2023-03-02T23:54:19.412Z,56.77
2023-03-02T23:56:45.964Z,59.67
2023-03-02T23:59:12.509Z,60.67
